MiSS Bettye — WDC2608 — position and weather

sailwx.info

Track history (hours):
 
Tides and Currents Weather Stations Pressure Air Temp Water Temp Dewpoint Dewpoint Depression Visibility Wind Speed Wind Dir Waves Ship Positions

MiSS Bettye

Owner: Kirby Inland Marine, LP, Houston, TX. More information available from US FCC via Universal Licensing System and Coast Guard Vessel Documentation Center.

Last reported at 2018-Jan-28 19:57 UTC. Time now 2018-Feb-24 06:11 UTC.
Position N 29°33' W 090°25'.
Warning: this ship's position is 26 days out of date.

Length 204 m; draft 3 m.

Type: . MMSI: 366995540.

Date/timePositionNaut miles runAvg speedWind from/ knotsBaromVisibWave heightAir tempDewpointWater temp
2018-Jan-28 19:57N 29°33' W 090°25'2 4.7
2018-Jan-28 19:30N 29°33' W 090°27'2 4.7
2018-Jan-28 19:00N 29°34' W 090°30'2 4.7
2018-Jan-28 18:30N 29°34' W 090°33'2 4.4
2018-Jan-28 18:00N 29°34' W 090°35'2 3.5
2018-Jan-28 17:30N 29°35' W 090°37'2 4.2
2018-Jan-28 17:00N 29°36' W 090°39'2 3.4
2018-Jan-28 16:30N 29°36' W 090°41'2 3.0
2018-Jan-28 16:00N 29°37' W 090°42'2 3.8
2018-Jan-28 15:30N 29°35' W 090°43'1 2.7
2018-Jan-28 15:00N 29°34' W 090°44'2 4.3
2018-Jan-28 14:30N 29°32' W 090°46'1 2.7
2018-Jan-28 14:00N 29°32' W 090°47'2 3.6
2018-Jan-28 13:31N 29°32' W 090°49'1 1.1
2018-Jan-28 13:01N 29°32' W 090°50'0 0.0
2018-Jan-28 12:30N 29°32' W 090°50'0 0.0
2018-Jan-28 12:01N 29°32' W 090°50'0 0.0
2018-Jan-28 11:30N 29°32' W 090°50'0 0.0
2018-Jan-28 11:00N 29°32' W 090°50'0 0.0
2018-Jan-28 10:31N 29°32' W 090°50'0 0.0
2018-Jan-28 10:01N 29°32' W 090°50'0 0.0
2018-Jan-28 09:31N 29°32' W 090°50'0 0.0
2018-Jan-28 09:01N 29°32' W 090°50'0 0.1
2018-Jan-28 08:31N 29°32' W 090°50'0 0.0
2018-Jan-28 08:00N 29°32' W 090°50'0 0.1
2018-Jan-28 07:29N 29°32' W 090°50'0 0.1
2018-Jan-28 07:01N 29°32' W 090°50'0 0.0
2018-Jan-28 06:31N 29°32' W 090°50'0 0.0
2018-Jan-28 06:00N 29°32' W 090°50'0 0.0
2018-Jan-28 05:29N 29°32' W 090°50'0 0.1
2018-Jan-28 05:01N 29°32' W 090°50'0 0.0
2018-Jan-28 04:31N 29°32' W 090°50'0 0.1
2018-Jan-28 04:01N 29°32' W 090°50'0 0.0
2018-Jan-28 03:31N 29°32' W 090°50'0 0.0
2018-Jan-28 03:01N 29°32' W 090°50'0 0.0
2018-Jan-28 02:31N 29°32' W 090°50'0 0.0
2018-Jan-28 02:01N 29°32' W 090°50'0 0.0
2018-Jan-28 01:30N 29°32' W 090°50'0 0.0
2018-Jan-28 01:00N 29°32' W 090°50'0 0.0
2018-Jan-28 00:31N 29°32' W 090°50'0 0.4
2018-Jan-28 00:01N 29°32' W 090°51'3 4.8
2018-Jan-27 23:28N 29°33' W 090°53'2 5.3
2018-Jan-27 23:00N 29°34' W 090°56'  
2018-Jan-24 20:24N 29°32' W 094°54'2 5.6
2018-Jan-24 20:00N 29°34' W 094°55'3 5.7
2018-Jan-24 19:30N 29°36' W 094°57'3 5.5
2018-Jan-24 19:00N 29°39' W 094°58'3 5.6
2018-Jan-24 18:30N 29°42' W 094°60'6 0.2
2018-Jan-23 14:01N 29°46' W 095°04'0 0.0
2018-Jan-23 13:50N 29°46' W 095°04'0 0.0
2018-Jan-23 02:08N 29°46' W 095°04'0 1.3
2018-Jan-23 01:51N 29°46' W 095°04'4 6.0
2018-Jan-23 01:15N 29°43' W 095°01'2 5.7
2018-Jan-23 00:53N 29°42' W 094°59'1 3.8
2018-Jan-23 00:30N 29°41' W 094°58'1 2.3
2018-Jan-23 00:00N 29°41' W 094°57'1 1.7
2018-Jan-22 23:30N 29°40' W 094°56'0 0.1
2018-Jan-22 22:49N 29°40' W 094°56'1 3.6
2018-Jan-22 22:30N 29°41' W 094°57'3 5.1
2018-Jan-22 22:00N 29°42' W 094°60'2 0.3
2018-Jan-22 15:13N 29°43' W 095°01'1 4.7
2018-Jan-22 15:00N 29°42' W 095°01'2 4.3
2018-Jan-22 14:30N 29°41' W 094°59'1 2.8
2018-Jan-22 14:00N 29°41' W 094°57'1 2.3
2018-Jan-22 13:29N 29°40' W 094°56'0 0.0
2018-Jan-22 12:59N 29°40' W 094°56'0 0.0
2018-Jan-22 12:28N 29°40' W 094°56'0 0.0
2018-Jan-22 11:58N 29°40' W 094°56'0 0.0
2018-Jan-22 11:28N 29°40' W 094°56'0 0.0
2018-Jan-22 10:16N 29°40' W 094°56'0 0.0
2018-Jan-22 09:40N 29°40' W 094°56'0 0.0
2018-Jan-22 09:10N 29°40' W 094°56'0 0.0
2018-Jan-22 08:46N 29°40' W 094°56'0 0.0
2018-Jan-22 08:22N 29°40' W 094°56'0 0.0
2018-Jan-22 07:58N 29°40' W 094°56'0 0.0
2018-Jan-22 06:34N 29°40' W 094°56'0 0.0
2018-Jan-22 05:04N 29°40' W 094°56'0 0.0
2018-Jan-21 06:07N 29°40' W 094°56'0 0.0
2018-Jan-21 00:24N 29°40' W 094°56'0 0.0
2018-Jan-20 23:45N 29°40' W 094°56'0 0.0
2018-Jan-20 23:26N 29°40' W 094°56'1 2.8
2018-Jan-20 23:00N 29°41' W 094°57'1 2.0
2018-Jan-20 22:30N 29°41' W 094°58'1 2.4
2018-Jan-20 22:00N 29°41' W 094°59'  
Track history (hours):
 
Tides and Currents Weather Stations Pressure Air Temp Water Temp Dewpoint Dewpoint Depression Visibility Wind Speed Wind Dir Waves Ship Positions

MiSS Bettye

Owner: Kirby Inland Marine, LP, Houston, TX. More information available from US FCC via Universal Licensing System and Coast Guard Vessel Documentation Center.

Last reported at 2018-Jan-28 19:57 UTC. Time now 2018-Feb-24 06:11 UTC.
Position N 29°33' W 090°25'.
Warning: this ship's position is 26 days out of date.

Length 204 m; draft 3 m.

Type: . MMSI: 366995540.

Date/timePositionNaut miles runAvg speedWind from/ knotsBaromVisibWave heightAir tempDewpointWater temp
2018-Jan-28 19:57N 29°33' W 090°25'2 4.7
2018-Jan-28 19:30N 29°33' W 090°27'2 4.7
2018-Jan-28 19:00N 29°34' W 090°30'2 4.7
2018-Jan-28 18:30N 29°34' W 090°33'2 4.4
2018-Jan-28 18:00N 29°34' W 090°35'2 3.5
2018-Jan-28 17:30N 29°35' W 090°37'2 4.2
2018-Jan-28 17:00N 29°36' W 090°39'2 3.4
2018-Jan-28 16:30N 29°36' W 090°41'2 3.0
2018-Jan-28 16:00N 29°37' W 090°42'2 3.8
2018-Jan-28 15:30N 29°35' W 090°43'1 2.7
2018-Jan-28 15:00N 29°34' W 090°44'2 4.3
2018-Jan-28 14:30N 29°32' W 090°46'1 2.7
2018-Jan-28 14:00N 29°32' W 090°47'2 3.6
2018-Jan-28 13:31N 29°32' W 090°49'1 1.1
2018-Jan-28 13:01N 29°32' W 090°50'0 0.0
2018-Jan-28 12:30N 29°32' W 090°50'0 0.0
2018-Jan-28 12:01N 29°32' W 090°50'0 0.0
2018-Jan-28 11:30N 29°32' W 090°50'0 0.0
2018-Jan-28 11:00N 29°32' W 090°50'0 0.0
2018-Jan-28 10:31N 29°32' W 090°50'0 0.0
2018-Jan-28 10:01N 29°32' W 090°50'0 0.0
2018-Jan-28 09:31N 29°32' W 090°50'0 0.0
2018-Jan-28 09:01N 29°32' W 090°50'0 0.1
2018-Jan-28 08:31N 29°32' W 090°50'0 0.0
2018-Jan-28 08:00N 29°32' W 090°50'0 0.1
2018-Jan-28 07:29N 29°32' W 090°50'0 0.1
2018-Jan-28 07:01N 29°32' W 090°50'0 0.0
2018-Jan-28 06:31N 29°32' W 090°50'0 0.0
2018-Jan-28 06:00N 29°32' W 090°50'0 0.0
2018-Jan-28 05:29N 29°32' W 090°50'0 0.1
2018-Jan-28 05:01N 29°32' W 090°50'0 0.0
2018-Jan-28 04:31N 29°32' W 090°50'0 0.1
2018-Jan-28 04:01N 29°32' W 090°50'0 0.0
2018-Jan-28 03:31N 29°32' W 090°50'0 0.0
2018-Jan-28 03:01N 29°32' W 090°50'0 0.0
2018-Jan-28 02:31N 29°32' W 090°50'0 0.0
2018-Jan-28 02:01N 29°32' W 090°50'0 0.0
2018-Jan-28 01:30N 29°32' W 090°50'0 0.0
2018-Jan-28 01:00N 29°32' W 090°50'0 0.0
2018-Jan-28 00:31N 29°32' W 090°50'0 0.4
2018-Jan-28 00:01N 29°32' W 090°51'3 4.8
2018-Jan-27 23:28N 29°33' W 090°53'2 5.3
2018-Jan-27 23:00N 29°34' W 090°56'  
2018-Jan-24 20:24N 29°32' W 094°54'2 5.6
2018-Jan-24 20:00N 29°34' W 094°55'3 5.7
2018-Jan-24 19:30N 29°36' W 094°57'3 5.5
2018-Jan-24 19:00N 29°39' W 094°58'3 5.6
2018-Jan-24 18:30N 29°42' W 094°60'6 0.2
2018-Jan-23 14:01N 29°46' W 095°04'0 0.0
2018-Jan-23 13:50N 29°46' W 095°04'0 0.0
2018-Jan-23 02:08N 29°46' W 095°04'0 1.3
2018-Jan-23 01:51N 29°46' W 095°04'4 6.0
2018-Jan-23 01:15N 29°43' W 095°01'2 5.7
2018-Jan-23 00:53N 29°42' W 094°59'1 3.8
2018-Jan-23 00:30N 29°41' W 094°58'1 2.3
2018-Jan-23 00:00N 29°41' W 094°57'1 1.7
2018-Jan-22 23:30N 29°40' W 094°56'0 0.1
2018-Jan-22 22:49N 29°40' W 094°56'1 3.6
2018-Jan-22 22:30N 29°41' W 094°57'3 5.1
2018-Jan-22 22:00N 29°42' W 094°60'2 0.3
2018-Jan-22 15:13N 29°43' W 095°01'1 4.7
2018-Jan-22 15:00N 29°42' W 095°01'2 4.3
2018-Jan-22 14:30N 29°41' W 094°59'1 2.8
2018-Jan-22 14:00N 29°41' W 094°57'1 2.3
2018-Jan-22 13:29N 29°40' W 094°56'0 0.0
2018-Jan-22 12:59N 29°40' W 094°56'0 0.0
2018-Jan-22 12:28N 29°40' W 094°56'0 0.0
2018-Jan-22 11:58N 29°40' W 094°56'0 0.0
2018-Jan-22 11:28N 29°40' W 094°56'0 0.0
2018-Jan-22 10:16N 29°40' W 094°56'0 0.0
2018-Jan-22 09:40N 29°40' W 094°56'0 0.0
2018-Jan-22 09:10N 29°40' W 094°56'0 0.0
2018-Jan-22 08:46N 29°40' W 094°56'0 0.0
2018-Jan-22 08:22N 29°40' W 094°56'0 0.0
2018-Jan-22 07:58N 29°40' W 094°56'0 0.0
2018-Jan-22 06:34N 29°40' W 094°56'0 0.0
2018-Jan-22 05:04N 29°40' W 094°56'0 0.0
2018-Jan-21 06:07N 29°40' W 094°56'0 0.0
2018-Jan-21 00:24N 29°40' W 094°56'0 0.0
2018-Jan-20 23:45N 29°40' W 094°56'0 0.0
2018-Jan-20 23:26N 29°40' W 094°56'1 2.8
2018-Jan-20 23:00N 29°41' W 094°57'1 2.0
2018-Jan-20 22:30N 29°41' W 094°58'1 2.4
2018-Jan-20 22:00N 29°41' W 094°59'  

Dump ship's entire track history